sensor_id;sensor_type;location;lat;lon;timestamp;P1;durP1;ratioP1;P2;durP2;ratioP2
37701;SDS011;23548;51.196;6.838;2023-12-20T00:00:52;12.63;;;5.60;;
37701;SDS011;23548;51.196;6.838;2023-12-20T00:03:17;12.27;;;5.53;;
37701;SDS011;23548;51.196;6.838;2023-12-20T00:05:43;11.98;;;5.05;;
37701;SDS011;23548;51.196;6.838;2023-12-20T00:08:09;9.93;;;4.82;;
37701;SDS011;23548;51.196;6.838;2023-12-20T00:10:35;10.82;;;5.05;;
37701;SDS011;23548;51.196;6.838;2023-12-20T00:13:00;13.85;;;5.68;;
37701;SDS011;23548;51.196;6.838;2023-12-20T00:15:26;16.98;;;5.95;;
37701;SDS011;23548;51.196;6.838;2023-12-20T00:17:52;14.70;;;6.03;;
37701;SDS011;23548;51.196;6.838;2023-12-20T00:20:17;11.70;;;5.70;;
37701;SDS011;23548;51.196;6.838;2023-12-20T00:22:43;12.85;;;6.32;;
37701;SDS011;23548;51.196;6.838;2023-12-20T00:25:09;14.73;;;6.70;;
37701;SDS011;23548;51.196;6.838;2023-12-20T00:27:35;13.50;;;7.10;;
37701;SDS011;23548;51.196;6.838;2023-12-20T00:30:00;14.70;;;6.05;;
37701;SDS011;23548;51.196;6.838;2023-12-20T00:32:26;15.82;;;7.15;;
37701;SDS011;23548;51.196;6.838;2023-12-20T00:34:52;13.00;;;6.97;;
37701;SDS011;23548;51.196;6.838;2023-12-20T00:37:17;13.02;;;6.80;;
37701;SDS011;23548;51.196;6.838;2023-12-20T00:39:43;12.55;;;6.32;;
37701;SDS011;23548;51.196;6.838;2023-12-20T00:42:09;14.50;;;6.40;;
37701;SDS011;23548;51.196;6.838;2023-12-20T00:44:34;12.93;;;6.45;;
37701;SDS011;23548;51.196;6.838;2023-12-20T00:47:00;12.90;;;7.15;;
37701;SDS011;23548;51.196;6.838;2023-12-20T00:49:26;24.98;;;7.15;;
37701;SDS011;23548;51.196;6.838;2023-12-20T00:51:52;15.38;;;7.45;;
37701;SDS011;23548;51.196;6.838;2023-12-20T00:54:18;17.30;;;7.65;;
37701;SDS011;23548;51.196;6.838;2023-12-20T00:56:43;17.27;;;9.30;;
37701;SDS011;23548;51.196;6.838;2023-12-20T00:59:09;18.48;;;9.13;;
37701;SDS011;23548;51.196;6.838;2023-12-20T01:01:36;23.25;;;9.13;;
37701;SDS011;23548;51.196;6.838;2023-12-20T01:04:02;21.85;;;9.45;;
37701;SDS011;23548;51.196;6.838;2023-12-20T01:06:28;17.38;;;9.18;;
37701;SDS011;23548;51.196;6.838;2023-12-20T01:08:54;20.70;;;9.50;;
37701;SDS011;23548;51.196;6.838;2023-12-20T01:11:19;20.45;;;10.10;;
37701;SDS011;23548;51.196;6.838;2023-12-20T01:13:45;24.25;;;10.75;;
37701;SDS011;23548;51.196;6.838;2023-12-20T01:16:12;27.65;;;11.93;;
37701;SDS011;23548;51.196;6.838;2023-12-20T01:18:37;26.75;;;10.90;;
37701;SDS011;23548;51.196;6.838;2023-12-20T01:21:04;24.95;;;12.23;;
37701;SDS011;23548;51.196;6.838;2023-12-20T01:23:30;25.83;;;13.13;;
37701;SDS011;23548;51.196;6.838;2023-12-20T01:25:57;26.98;;;13.77;;
37701;SDS011;23548;51.196;6.838;2023-12-20T01:28:24;27.63;;;13.85;;
37701;SDS011;23548;51.196;6.838;2023-12-20T01:30:51;33.17;;;15.75;;
37701;SDS011;23548;51.196;6.838;2023-12-20T01:33:17;33.53;;;15.60;;
37701;SDS011;23548;51.196;6.838;2023-12-20T01:35:43;31.50;;;17.35;;
37701;SDS011;23548;51.196;6.838;2023-12-20T01:38:09;38.30;;;16.90;;
37701;SDS011;23548;51.196;6.838;2023-12-20T01:40:34;36.10;;;17.98;;
37701;SDS011;23548;51.196;6.838;2023-12-20T01:43:09;35.08;;;17.40;;
37701;SDS011;23548;51.196;6.838;2023-12-20T01:45:36;43.58;;;18.67;;
37701;SDS011;23548;51.196;6.838;2023-12-20T01:48:02;35.65;;;19.02;;
37701;SDS011;23548;51.196;6.838;2023-12-20T01:50:30;32.00;;;17.95;;
37701;SDS011;23548;51.196;6.838;2023-12-20T01:52:57;35.42;;;18.17;;
37701;SDS011;23548;51.196;6.838;2023-12-20T01:55:25;37.92;;;17.88;;
37701;SDS011;23548;51.196;6.838;2023-12-20T01:57:55;39.58;;;17.65;;
37701;SDS011;23548;51.196;6.838;2023-12-20T02:00:22;34.10;;;17.63;;
37701;SDS011;23548;51.196;6.838;2023-12-20T02:06:04;31.27;;;17.25;;
37701;SDS011;23548;51.196;6.838;2023-12-20T02:08:30;34.20;;;18.33;;
37701;SDS011;23548;51.196;6.838;2023-12-20T02:10:56;28.13;;;15.30;;
37701;SDS011;23548;51.196;6.838;2023-12-20T02:13:22;39.30;;;14.88;;
37701;SDS011;23548;51.196;6.838;2023-12-20T02:15:47;35.65;;;15.07;;
37701;SDS011;23548;51.196;6.838;2023-12-20T02:18:13;33.65;;;15.75;;
37701;SDS011;23548;51.196;6.838;2023-12-20T02:20:41;36.70;;;15.57;;
37701;SDS011;23548;51.196;6.838;2023-12-20T02:23:07;31.92;;;13.95;;
37701;SDS011;23548;51.196;6.838;2023-12-20T02:25:33;31.88;;;13.85;;
37701;SDS011;23548;51.196;6.838;2023-12-20T02:27:59;32.30;;;12.70;;
37701;SDS011;23548;51.196;6.838;2023-12-20T02:30:24;23.77;;;12.77;;
37701;SDS011;23548;51.196;6.838;2023-12-20T02:32:50;31.75;;;13.32;;
37701;SDS011;23548;51.196;6.838;2023-12-20T02:35:17;35.88;;;13.85;;
37701;SDS011;23548;51.196;6.838;2023-12-20T02:37:43;29.80;;;12.32;;
37701;SDS011;23548;51.196;6.838;2023-12-20T02:40:09;35.00;;;13.63;;
37701;SDS011;23548;51.196;6.838;2023-12-20T02:42:35;28.15;;;12.43;;
37701;SDS011;23548;51.196;6.838;2023-12-20T02:45:01;32.17;;;11.10;;
37701;SDS011;23548;51.196;6.838;2023-12-20T02:47:27;33.28;;;10.45;;
37701;SDS011;23548;51.196;6.838;2023-12-20T02:49:54;28.02;;;10.75;;
37701;SDS011;23548;51.196;6.838;2023-12-20T02:52:20;27.95;;;9.75;;
37701;SDS011;23548;51.196;6.838;2023-12-20T02:54:47;27.52;;;8.85;;
37701;SDS011;23548;51.196;6.838;2023-12-20T02:57:13;22.02;;;8.57;;
37701;SDS011;23548;51.196;6.838;2023-12-20T03:03:00;22.55;;;6.50;;
37701;SDS011;23548;51.196;6.838;2023-12-20T03:05:26;24.58;;;6.55;;
37701;SDS011;23548;51.196;6.838;2023-12-20T03:07:51;21.25;;;7.47;;
37701;SDS011;23548;51.196;6.838;2023-12-20T03:10:18;14.10;;;5.68;;
37701;SDS011;23548;51.196;6.838;2023-12-20T03:12:44;15.07;;;5.93;;
37701;SDS011;23548;51.196;6.838;2023-12-20T03:15:10;23.73;;;6.22;;
37701;SDS011;23548;51.196;6.838;2023-12-20T03:17:36;20.20;;;5.78;;
37701;SDS011;23548;51.196;6.838;2023-12-20T03:20:02;23.67;;;6.32;;
37701;SDS011;23548;51.196;6.838;2023-12-20T03:22:27;28.75;;;6.22;;
37701;SDS011;23548;51.196;6.838;2023-12-20T03:24:53;21.52;;;5.95;;
37701;SDS011;23548;51.196;6.838;2023-12-20T03:27:19;26.73;;;5.93;;
37701;SDS011;23548;51.196;6.838;2023-12-20T03:29:44;26.15;;;5.60;;
37701;SDS011;23548;51.196;6.838;2023-12-20T03:32:10;20.85;;;5.65;;
37701;SDS011;23548;51.196;6.838;2023-12-20T03:34:36;23.80;;;7.05;;
37701;SDS011;23548;51.196;6.838;2023-12-20T03:37:02;21.92;;;5.70;;
37701;SDS011;23548;51.196;6.838;2023-12-20T03:39:28;29.05;;;5.93;;
37701;SDS011;23548;51.196;6.838;2023-12-20T03:41:54;17.85;;;5.70;;
37701;SDS011;23548;51.196;6.838;2023-12-20T03:44:19;15.93;;;5.25;;
37701;SDS011;23548;51.196;6.838;2023-12-20T03:46:45;15.57;;;5.25;;
37701;SDS011;23548;51.196;6.838;2023-12-20T03:49:11;24.60;;;5.38;;
37701;SDS011;23548;51.196;6.838;2023-12-20T03:51:37;20.50;;;5.50;;
37701;SDS011;23548;51.196;6.838;2023-12-20T03:54:03;27.02;;;6.32;;
37701;SDS011;23548;51.196;6.838;2023-12-20T03:56:28;15.55;;;5.00;;
37701;SDS011;23548;51.196;6.838;2023-12-20T03:58:54;19.80;;;5.80;;
37701;SDS011;23548;51.196;6.838;2023-12-20T04:01:20;18.70;;;5.40;;
37701;SDS011;23548;51.196;6.838;2023-12-20T04:03:45;27.73;;;5.78;;
37701;SDS011;23548;51.196;6.838;2023-12-20T04:06:16;22.52;;;5.97;;
37701;SDS011;23548;51.196;6.838;2023-12-20T04:08:44;20.98;;;6.43;;
37701;SDS011;23548;51.196;6.838;2023-12-20T04:11:10;25.27;;;6.40;;
37701;SDS011;23548;51.196;6.838;2023-12-20T04:13:36;22.85;;;6.00;;
37701;SDS011;23548;51.196;6.838;2023-12-20T04:16:02;15.93;;;5.90;;
37701;SDS011;23548;51.196;6.838;2023-12-20T04:18:28;24.35;;;6.28;;
37701;SDS011;23548;51.196;6.838;2023-12-20T04:20:54;20.90;;;6.18;;
37701;SDS011;23548;51.196;6.838;2023-12-20T04:23:19;22.33;;;6.18;;
37701;SDS011;23548;51.196;6.838;2023-12-20T04:25:45;23.75;;;6.45;;
37701;SDS011;23548;51.196;6.838;2023-12-20T04:28:11;28.30;;;6.38;;
37701;SDS011;23548;51.196;6.838;2023-12-20T04:30:37;22.13;;;6.22;;
37701;SDS011;23548;51.196;6.838;2023-12-20T04:33:03;20.27;;;6.05;;
37701;SDS011;23548;51.196;6.838;2023-12-20T04:35:29;26.95;;;7.22;;
37701;SDS011;23548;51.196;6.838;2023-12-20T04:37:55;21.75;;;6.28;;
37701;SDS011;23548;51.196;6.838;2023-12-20T04:40:20;28.45;;;8.25;;
37701;SDS011;23548;51.196;6.838;2023-12-20T04:42:46;27.02;;;7.20;;
37701;SDS011;23548;51.196;6.838;2023-12-20T04:45:12;31.17;;;7.32;;
37701;SDS011;23548;51.196;6.838;2023-12-20T04:47:41;24.38;;;6.90;;
37701;SDS011;23548;51.196;6.838;2023-12-20T04:50:07;26.65;;;7.38;;
37701;SDS011;23548;51.196;6.838;2023-12-20T04:52:34;22.40;;;7.68;;
37701;SDS011;23548;51.196;6.838;2023-12-20T04:55:00;27.52;;;7.55;;
37701;SDS011;23548;51.196;6.838;2023-12-20T04:57:26;27.15;;;7.80;;
37701;SDS011;23548;51.196;6.838;2023-12-20T04:59:52;26.38;;;7.75;;
37701;SDS011;23548;51.196;6.838;2023-12-20T05:02:17;23.90;;;7.07;;
37701;SDS011;23548;51.196;6.838;2023-12-20T05:04:43;25.48;;;7.38;;
37701;SDS011;23548;51.196;6.838;2023-12-20T05:07:09;27.67;;;6.70;;
37701;SDS011;23548;51.196;6.838;2023-12-20T05:09:35;26.42;;;7.65;;
37701;SDS011;23548;51.196;6.838;2023-12-20T05:12:01;24.20;;;7.03;;
37701;SDS011;23548;51.196;6.838;2023-12-20T05:14:26;16.38;;;6.85;;
37701;SDS011;23548;51.196;6.838;2023-12-20T05:16:52;22.02;;;6.97;;
37701;SDS011;23548;51.196;6.838;2023-12-20T05:19:18;31.05;;;7.35;;
37701;SDS011;23548;51.196;6.838;2023-12-20T05:21:43;26.13;;;7.38;;
37701;SDS011;23548;51.196;6.838;2023-12-20T05:24:09;23.27;;;7.22;;
37701;SDS011;23548;51.196;6.838;2023-12-20T05:26:35;23.13;;;6.70;;
37701;SDS011;23548;51.196;6.838;2023-12-20T05:29:00;32.67;;;7.95;;
37701;SDS011;23548;51.196;6.838;2023-12-20T05:31:26;26.02;;;8.07;;
37701;SDS011;23548;51.196;6.838;2023-12-20T05:33:52;30.15;;;7.13;;
37701;SDS011;23548;51.196;6.838;2023-12-20T05:36:18;23.30;;;7.00;;
37701;SDS011;23548;51.196;6.838;2023-12-20T05:38:44;24.15;;;6.72;;
37701;SDS011;23548;51.196;6.838;2023-12-20T05:41:09;21.05;;;7.10;;
37701;SDS011;23548;51.196;6.838;2023-12-20T05:43:35;22.17;;;6.47;;
37701;SDS011;23548;51.196;6.838;2023-12-20T05:46:01;22.08;;;7.03;;
37701;SDS011;23548;51.196;6.838;2023-12-20T05:48:26;26.77;;;7.55;;
37701;SDS011;23548;51.196;6.838;2023-12-20T05:50:52;28.45;;;6.68;;
37701;SDS011;23548;51.196;6.838;2023-12-20T05:53:18;25.85;;;6.75;;
37701;SDS011;23548;51.196;6.838;2023-12-20T05:55:44;25.10;;;6.13;;
37701;SDS011;23548;51.196;6.838;2023-12-20T05:58:09;28.10;;;6.80;;
37701;SDS011;23548;51.196;6.838;2023-12-20T06:00:35;27.30;;;6.45;;
37701;SDS011;23548;51.196;6.838;2023-12-20T06:03:01;27.25;;;7.03;;
37701;SDS011;23548;51.196;6.838;2023-12-20T06:05:27;20.23;;;6.70;;
37701;SDS011;23548;51.196;6.838;2023-12-20T06:07:52;21.08;;;6.38;;
37701;SDS011;23548;51.196;6.838;2023-12-20T06:10:19;19.75;;;6.53;;
37701;SDS011;23548;51.196;6.838;2023-12-20T06:12:45;28.48;;;6.43;;
37701;SDS011;23548;51.196;6.838;2023-12-20T06:15:13;28.23;;;7.22;;
37701;SDS011;23548;51.196;6.838;2023-12-20T06:17:39;21.17;;;7.63;;
37701;SDS011;23548;51.196;6.838;2023-12-20T06:20:05;25.77;;;7.72;;
37701;SDS011;23548;51.196;6.838;2023-12-20T06:22:33;25.98;;;7.65;;
37701;SDS011;23548;51.196;6.838;2023-12-20T06:24:59;28.25;;;7.63;;
37701;SDS011;23548;51.196;6.838;2023-12-20T06:27:25;22.48;;;7.70;;
37701;SDS011;23548;51.196;6.838;2023-12-20T06:29:51;22.23;;;7.05;;
37701;SDS011;23548;51.196;6.838;2023-12-20T06:32:16;28.15;;;7.68;;
37701;SDS011;23548;51.196;6.838;2023-12-20T06:34:42;23.63;;;7.30;;
37701;SDS011;23548;51.196;6.838;2023-12-20T06:37:08;26.00;;;7.70;;
37701;SDS011;23548;51.196;6.838;2023-12-20T06:39:34;21.52;;;7.68;;
37701;SDS011;23548;51.196;6.838;2023-12-20T06:41:59;20.75;;;6.65;;
37701;SDS011;23548;51.196;6.838;2023-12-20T06:44:25;23.23;;;7.38;;
37701;SDS011;23548;51.196;6.838;2023-12-20T06:46:51;23.38;;;8.27;;
37701;SDS011;23548;51.196;6.838;2023-12-20T06:49:17;29.30;;;6.82;;
37701;SDS011;23548;51.196;6.838;2023-12-20T06:51:43;24.02;;;7.72;;
37701;SDS011;23548;51.196;6.838;2023-12-20T06:54:09;23.27;;;7.07;;
37701;SDS011;23548;51.196;6.838;2023-12-20T06:56:34;28.55;;;7.43;;
37701;SDS011;23548;51.196;6.838;2023-12-20T06:59:00;26.42;;;7.57;;
37701;SDS011;23548;51.196;6.838;2023-12-20T07:01:26;25.40;;;7.18;;
37701;SDS011;23548;51.196;6.838;2023-12-20T07:03:52;22.30;;;6.35;;
37701;SDS011;23548;51.196;6.838;2023-12-20T07:06:17;28.20;;;7.10;;
37701;SDS011;23548;51.196;6.838;2023-12-20T07:08:44;22.92;;;6.88;;
37701;SDS011;23548;51.196;6.838;2023-12-20T07:11:10;25.17;;;7.13;;
37701;SDS011;23548;51.196;6.838;2023-12-20T07:13:35;24.20;;;6.68;;
37701;SDS011;23548;51.196;6.838;2023-12-20T07:16:01;26.60;;;7.57;;
37701;SDS011;23548;51.196;6.838;2023-12-20T07:18:27;27.25;;;6.93;;
37701;SDS011;23548;51.196;6.838;2023-12-20T07:20:52;26.27;;;7.70;;
37701;SDS011;23548;51.196;6.838;2023-12-20T07:23:19;23.33;;;7.38;;
37701;SDS011;23548;51.196;6.838;2023-12-20T07:25:46;17.42;;;6.47;;
37701;SDS011;23548;51.196;6.838;2023-12-20T07:28:12;23.83;;;7.13;;
37701;SDS011;23548;51.196;6.838;2023-12-20T07:30:38;21.88;;;6.45;;
37701;SDS011;23548;51.196;6.838;2023-12-20T07:33:04;30.00;;;6.60;;
37701;SDS011;23548;51.196;6.838;2023-12-20T07:35:30;21.25;;;7.10;;
37701;SDS011;23548;51.196;6.838;2023-12-20T07:37:56;26.70;;;7.00;;
37701;SDS011;23548;51.196;6.838;2023-12-20T07:40:21;23.17;;;6.55;;
37701;SDS011;23548;51.196;6.838;2023-12-20T07:42:48;19.75;;;7.28;;
37701;SDS011;23548;51.196;6.838;2023-12-20T07:45:14;24.15;;;7.68;;
37701;SDS011;23548;51.196;6.838;2023-12-20T07:47:40;24.67;;;6.95;;
37701;SDS011;23548;51.196;6.838;2023-12-20T07:50:06;26.13;;;7.28;;
37701;SDS011;23548;51.196;6.838;2023-12-20T07:52:32;26.00;;;8.25;;
37701;SDS011;23548;51.196;6.838;2023-12-20T07:54:57;22.92;;;7.68;;
37701;SDS011;23548;51.196;6.838;2023-12-20T07:57:23;32.78;;;7.97;;
37701;SDS011;23548;51.196;6.838;2023-12-20T07:59:49;26.77;;;7.05;;
37701;SDS011;23548;51.196;6.838;2023-12-20T08:02:15;25.52;;;6.72;;
37701;SDS011;23548;51.196;6.838;2023-12-20T08:04:40;25.95;;;6.63;;
37701;SDS011;23548;51.196;6.838;2023-12-20T08:07:09;23.48;;;7.80;;
37701;SDS011;23548;51.196;6.838;2023-12-20T08:09:35;28.17;;;8.27;;
37701;SDS011;23548;51.196;6.838;2023-12-20T08:12:01;17.85;;;6.97;;
37701;SDS011;23548;51.196;6.838;2023-12-20T08:14:27;26.27;;;7.30;;
37701;SDS011;23548;51.196;6.838;2023-12-20T08:16:53;24.17;;;7.60;;
37701;SDS011;23548;51.196;6.838;2023-12-20T08:19:19;28.27;;;8.02;;
37701;SDS011;23548;51.196;6.838;2023-12-20T08:21:45;18.67;;;7.55;;
37701;SDS011;23548;51.196;6.838;2023-12-20T08:24:14;21.70;;;7.28;;
37701;SDS011;23548;51.196;6.838;2023-12-20T08:26:39;24.27;;;7.20;;
37701;SDS011;23548;51.196;6.838;2023-12-20T08:29:05;27.08;;;7.35;;
37701;SDS011;23548;51.196;6.838;2023-12-20T08:31:31;26.02;;;6.55;;
37701;SDS011;23548;51.196;6.838;2023-12-20T08:33:56;22.88;;;7.38;;
37701;SDS011;23548;51.196;6.838;2023-12-20T08:36:22;25.40;;;7.80;;
37701;SDS011;23548;51.196;6.838;2023-12-20T08:38:48;26.00;;;7.13;;
37701;SDS011;23548;51.196;6.838;2023-12-20T08:41:15;23.95;;;6.72;;
37701;SDS011;23548;51.196;6.838;2023-12-20T08:43:42;23.85;;;7.20;;
37701;SDS011;23548;51.196;6.838;2023-12-20T08:46:08;26.33;;;7.30;;
37701;SDS011;23548;51.196;6.838;2023-12-20T08:48:37;26.02;;;6.88;;
37701;SDS011;23548;51.196;6.838;2023-12-20T08:51:03;22.88;;;6.60;;
37701;SDS011;23548;51.196;6.838;2023-12-20T08:53:29;25.02;;;6.55;;
37701;SDS011;23548;51.196;6.838;2023-12-20T08:55:55;34.35;;;7.10;;
37701;SDS011;23548;51.196;6.838;2023-12-20T08:58:21;22.67;;;5.97;;
37701;SDS011;23548;51.196;6.838;2023-12-20T09:00:46;22.85;;;6.75;;
37701;SDS011;23548;51.196;6.838;2023-12-20T09:03:12;21.98;;;6.30;;
37701;SDS011;23548;51.196;6.838;2023-12-20T09:05:38;20.77;;;5.70;;
37701;SDS011;23548;51.196;6.838;2023-12-20T09:08:04;28.25;;;5.88;;
37701;SDS011;23548;51.196;6.838;2023-12-20T09:10:30;21.52;;;6.43;;
37701;SDS011;23548;51.196;6.838;2023-12-20T09:12:55;26.35;;;6.70;;
37701;SDS011;23548;51.196;6.838;2023-12-20T09:15:25;23.15;;;6.10;;
37701;SDS011;23548;51.196;6.838;2023-12-20T09:17:52;25.05;;;5.85;;
37701;SDS011;23548;51.196;6.838;2023-12-20T09:20:18;24.15;;;5.63;;
37701;SDS011;23548;51.196;6.838;2023-12-20T09:22:44;22.30;;;6.78;;
37701;SDS011;23548;51.196;6.838;2023-12-20T09:25:10;22.52;;;5.65;;
37701;SDS011;23548;51.196;6.838;2023-12-20T09:27:37;20.83;;;6.07;;
37701;SDS011;23548;51.196;6.838;2023-12-20T09:30:03;22.48;;;5.43;;
37701;SDS011;23548;51.196;6.838;2023-12-20T09:32:30;26.40;;;6.10;;
37701;SDS011;23548;51.196;6.838;2023-12-20T09:34:56;18.67;;;5.78;;
37701;SDS011;23548;51.196;6.838;2023-12-20T09:37:22;18.30;;;5.43;;
37701;SDS011;23548;51.196;6.838;2023-12-20T09:39:51;19.20;;;4.78;;
37701;SDS011;23548;51.196;6.838;2023-12-20T09:42:19;16.35;;;4.47;;
37701;SDS011;23548;51.196;6.838;2023-12-20T09:44:54;20.67;;;5.13;;
37701;SDS011;23548;51.196;6.838;2023-12-20T09:47:23;19.65;;;4.45;;
37701;SDS011;23548;51.196;6.838;2023-12-20T09:49:50;21.55;;;4.45;;
37701;SDS011;23548;51.196;6.838;2023-12-20T09:52:17;20.27;;;5.25;;
37701;SDS011;23548;51.196;6.838;2023-12-20T09:54:43;21.27;;;5.65;;
37701;SDS011;23548;51.196;6.838;2023-12-20T09:57:10;20.08;;;5.50;;
37701;SDS011;23548;51.196;6.838;2023-12-20T09:59:36;18.58;;;4.72;;
37701;SDS011;23548;51.196;6.838;2023-12-20T10:02:02;23.70;;;4.97;;
37701;SDS011;23548;51.196;6.838;2023-12-20T10:04:31;21.05;;;4.88;;
37701;SDS011;23548;51.196;6.838;2023-12-20T10:07:01;19.90;;;4.60;;
37701;SDS011;23548;51.196;6.838;2023-12-20T10:09:31;27.90;;;5.82;;
37701;SDS011;23548;51.196;6.838;2023-12-20T10:11:57;17.08;;;5.07;;
37701;SDS011;23548;51.196;6.838;2023-12-20T10:14:23;17.98;;;4.43;;
37701;SDS011;23548;51.196;6.838;2023-12-20T10:16:49;19.17;;;4.90;;
37701;SDS011;23548;51.196;6.838;2023-12-20T10:19:18;12.02;;;4.32;;
37701;SDS011;23548;51.196;6.838;2023-12-20T10:21:45;16.27;;;4.43;;
37701;SDS011;23548;51.196;6.838;2023-12-20T10:24:16;20.88;;;4.63;;
37701;SDS011;23548;51.196;6.838;2023-12-20T10:26:43;20.88;;;4.63;;
37701;SDS011;23548;51.196;6.838;2023-12-20T10:29:08;18.50;;;4.15;;
37701;SDS011;23548;51.196;6.838;2023-12-20T10:31:36;21.52;;;5.15;;
37701;SDS011;23548;51.196;6.838;2023-12-20T10:34:03;17.05;;;4.53;;
37701;SDS011;23548;51.196;6.838;2023-12-20T10:36:30;18.67;;;5.03;;
37701;SDS011;23548;51.196;6.838;2023-12-20T10:38:57;20.90;;;5.00;;
37701;SDS011;23548;51.196;6.838;2023-12-20T10:41:30;15.45;;;4.18;;
37701;SDS011;23548;51.196;6.838;2023-12-20T10:46:28;25.85;;;5.22;;
37701;SDS011;23548;51.196;6.838;2023-12-20T10:48:55;15.60;;;4.70;;
37701;SDS011;23548;51.196;6.838;2023-12-20T10:51:22;17.23;;;4.38;;
37701;SDS011;23548;51.196;6.838;2023-12-20T10:53:52;17.75;;;4.82;;
37701;SDS011;23548;51.196;6.838;2023-12-20T10:56:18;22.02;;;4.65;;
37701;SDS011;23548;51.196;6.838;2023-12-20T10:58:46;18.50;;;4.30;;
37701;SDS011;23548;51.196;6.838;2023-12-20T11:01:13;16.75;;;4.47;;
37701;SDS011;23548;51.196;6.838;2023-12-20T11:03:42;21.23;;;5.03;;
37701;SDS011;23548;51.196;6.838;2023-12-20T11:06:15;17.60;;;4.80;;
37701;SDS011;23548;51.196;6.838;2023-12-20T11:09:45;19.95;;;5.13;;
37701;SDS011;23548;51.196;6.838;2023-12-20T11:14:33;22.02;;;4.75;;
37701;SDS011;23548;51.196;6.838;2023-12-20T11:17:05;18.65;;;5.00;;
37701;SDS011;23548;51.196;6.838;2023-12-20T11:22:21;16.33;;;4.40;;
37701;SDS011;23548;51.196;6.838;2023-12-20T11:24:51;20.05;;;4.50;;
37701;SDS011;23548;51.196;6.838;2023-12-20T11:27:18;17.10;;;4.43;;
37701;SDS011;23548;51.196;6.838;2023-12-20T11:29:51;14.98;;;4.47;;
37701;SDS011;23548;51.196;6.838;2023-12-20T11:34:53;22.45;;;5.30;;
37701;SDS011;23548;51.196;6.838;2023-12-20T11:37:45;16.00;;;4.90;;
37701;SDS011;23548;51.196;6.838;2023-12-20T11:40:15;17.05;;;5.40;;
37701;SDS011;23548;51.196;6.838;2023-12-20T11:42:44;15.48;;;5.00;;
37701;SDS011;23548;51.196;6.838;2023-12-20T11:45:14;15.95;;;4.82;;
37701;SDS011;23548;51.196;6.838;2023-12-20T11:47:45;20.55;;;5.00;;
37701;SDS011;23548;51.196;6.838;2023-12-20T11:50:12;21.83;;;5.28;;
37701;SDS011;23548;51.196;6.838;2023-12-20T11:52:37;18.55;;;5.18;;
37701;SDS011;23548;51.196;6.838;2023-12-20T11:55:06;15.10;;;4.65;;
37701;SDS011;23548;51.196;6.838;2023-12-20T11:57:32;13.68;;;4.10;;
37701;SDS011;23548;51.196;6.838;2023-12-20T11:59:58;15.35;;;4.88;;
37701;SDS011;23548;51.196;6.838;2023-12-20T12:02:25;17.73;;;4.32;;
37701;SDS011;23548;51.196;6.838;2023-12-20T12:04:51;12.93;;;4.63;;
37701;SDS011;23548;51.196;6.838;2023-12-20T12:07:17;21.08;;;5.00;;
37701;SDS011;23548;51.196;6.838;2023-12-20T12:09:43;16.85;;;4.95;;
37701;SDS011;23548;51.196;6.838;2023-12-20T12:12:09;13.82;;;4.47;;
37701;SDS011;23548;51.196;6.838;2023-12-20T12:14:37;24.92;;;5.07;;
37701;SDS011;23548;51.196;6.838;2023-12-20T12:17:03;17.45;;;4.50;;
37701;SDS011;23548;51.196;6.838;2023-12-20T12:19:30;15.32;;;4.90;;
37701;SDS011;23548;51.196;6.838;2023-12-20T12:22:13;16.60;;;5.07;;
37701;SDS011;23548;51.196;6.838;2023-12-20T12:24:44;21.73;;;5.07;;
37701;SDS011;23548;51.196;6.838;2023-12-20T12:27:11;18.80;;;5.10;;
37701;SDS011;23548;51.196;6.838;2023-12-20T12:29:42;16.05;;;5.10;;
37701;SDS011;23548;51.196;6.838;2023-12-20T12:32:34;18.45;;;5.18;;
37701;SDS011;23548;51.196;6.838;2023-12-20T12:35:02;16.13;;;4.93;;
37701;SDS011;23548;51.196;6.838;2023-12-20T12:37:31;24.55;;;5.78;;
37701;SDS011;23548;51.196;6.838;2023-12-20T12:40:00;18.10;;;5.70;;
37701;SDS011;23548;51.196;6.838;2023-12-20T12:42:36;18.95;;;5.45;;
37701;SDS011;23548;51.196;6.838;2023-12-20T12:45:02;18.63;;;5.40;;
37701;SDS011;23548;51.196;6.838;2023-12-20T12:47:29;17.70;;;6.00;;
37701;SDS011;23548;51.196;6.838;2023-12-20T12:49:55;19.48;;;5.90;;
37701;SDS011;23548;51.196;6.838;2023-12-20T12:52:21;22.02;;;5.20;;
37701;SDS011;23548;51.196;6.838;2023-12-20T12:54:47;16.67;;;5.65;;
37701;SDS011;23548;51.196;6.838;2023-12-20T12:57:14;28.38;;;6.10;;
37701;SDS011;23548;51.196;6.838;2023-12-20T12:59:41;19.08;;;5.82;;
37701;SDS011;23548;51.196;6.838;2023-12-20T13:02:07;21.48;;;6.15;;
37701;SDS011;23548;51.196;6.838;2023-12-20T13:04:33;17.92;;;6.45;;
37701;SDS011;23548;51.196;6.838;2023-12-20T13:06:59;27.33;;;7.03;;
37701;SDS011;23548;51.196;6.838;2023-12-20T13:09:25;21.98;;;7.18;;
37701;SDS011;23548;51.196;6.838;2023-12-20T13:11:50;15.80;;;6.57;;
37701;SDS011;23548;51.196;6.838;2023-12-20T13:14:16;22.98;;;7.50;;
37701;SDS011;23548;51.196;6.838;2023-12-20T13:16:42;23.25;;;7.85;;
37701;SDS011;23548;51.196;6.838;2023-12-20T13:19:08;19.88;;;7.15;;
37701;SDS011;23548;51.196;6.838;2023-12-20T13:21:35;23.88;;;7.80;;
37701;SDS011;23548;51.196;6.838;2023-12-20T13:24:01;24.33;;;7.95;;
37701;SDS011;23548;51.196;6.838;2023-12-20T13:26:26;27.73;;;8.30;;
37701;SDS011;23548;51.196;6.838;2023-12-20T13:28:53;22.73;;;8.30;;
37701;SDS011;23548;51.196;6.838;2023-12-20T13:31:19;31.00;;;7.63;;
37701;SDS011;23548;51.196;6.838;2023-12-20T13:33:46;26.35;;;7.45;;
37701;SDS011;23548;51.196;6.838;2023-12-20T13:36:12;20.20;;;8.48;;
37701;SDS011;23548;51.196;6.838;2023-12-20T13:38:38;21.92;;;8.38;;
37701;SDS011;23548;51.196;6.838;2023-12-20T13:41:04;26.45;;;8.20;;
37701;SDS011;23548;51.196;6.838;2023-12-20T13:43:31;20.63;;;8.18;;
37701;SDS011;23548;51.196;6.838;2023-12-20T13:45:58;16.92;;;7.60;;
37701;SDS011;23548;51.196;6.838;2023-12-20T13:48:24;23.77;;;8.27;;
37701;SDS011;23548;51.196;6.838;2023-12-20T13:50:49;19.60;;;7.93;;
37701;SDS011;23548;51.196;6.838;2023-12-20T13:53:15;24.50;;;8.40;;
37701;SDS011;23548;51.196;6.838;2023-12-20T13:55:41;22.52;;;7.82;;
37701;SDS011;23548;51.196;6.838;2023-12-20T13:58:07;23.10;;;9.15;;
37701;SDS011;23548;51.196;6.838;2023-12-20T14:00:35;21.48;;;7.53;;
37701;SDS011;23548;51.196;6.838;2023-12-20T14:03:01;19.55;;;7.80;;
37701;SDS011;23548;51.196;6.838;2023-12-20T14:05:28;26.50;;;9.88;;
37701;SDS011;23548;51.196;6.838;2023-12-20T14:07:54;19.90;;;8.18;;
37701;SDS011;23548;51.196;6.838;2023-12-20T14:10:23;17.95;;;8.07;;
37701;SDS011;23548;51.196;6.838;2023-12-20T14:12:51;22.33;;;7.72;;
37701;SDS011;23548;51.196;6.838;2023-12-20T14:15:18;25.05;;;7.85;;
37701;SDS011;23548;51.196;6.838;2023-12-20T14:17:44;22.58;;;7.28;;
37701;SDS011;23548;51.196;6.838;2023-12-20T14:20:10;18.08;;;7.18;;
37701;SDS011;23548;51.196;6.838;2023-12-20T14:22:39;16.55;;;7.22;;
37701;SDS011;23548;51.196;6.838;2023-12-20T14:25:10;18.05;;;7.18;;
37701;SDS011;23548;51.196;6.838;2023-12-20T14:27:37;16.48;;;7.57;;
37701;SDS011;23548;51.196;6.838;2023-12-20T14:30:03;15.88;;;6.43;;
37701;SDS011;23548;51.196;6.838;2023-12-20T14:32:31;13.90;;;6.32;;
37701;SDS011;23548;51.196;6.838;2023-12-20T14:34:56;19.05;;;7.72;;
37701;SDS011;23548;51.196;6.838;2023-12-20T14:37:22;19.15;;;7.55;;
37701;SDS011;23548;51.196;6.838;2023-12-20T14:39:48;15.65;;;7.22;;
37701;SDS011;23548;51.196;6.838;2023-12-20T14:42:14;19.63;;;6.82;;
37701;SDS011;23548;51.196;6.838;2023-12-20T14:44:40;20.33;;;6.63;;
37701;SDS011;23548;51.196;6.838;2023-12-20T14:47:06;17.05;;;6.82;;